Main page
METAR-TAF:

METAR-TAF

Airports :

Rhodes International Airport

Rhodes, Greece

latitude: 36-24N, longitude: 028-05E, elevation: 4 m

Current weather observation

The report was made 22 minutes ago, at 09:50 UTC
Wind 9 kt from the Southeast
Temperature 28°C
Humidity 51%
Pressure 1014 hPa
Visibility 10 km or more
Few clouds at a height of 2500 ft

METAR: LGRP 220950Z 14009KT 9999 FEW025 28/17 Q1014 NOSIG

Time: 13:12 (10:12 UTC)

Forecast

The report was made 5 hours and 12 minutes ago, at 05:00 UTC
Forecast valid from 22 at 06 UTC to 23 at 06 UTC
Wind 10 kt from the East/Southeast
Visibility 10 km or more
Few clouds at a height of 1800 ft

TAF: LGRP 220500Z 2206/2306 11010KT 9999 FEW018

Weather observations and forecasts of more than 4000 airports (METAR and TAF reports).

The available stations are represented by yellow and red dots on the map.

Hover mouse over dot to see the name of the station.

Then click to see weather observations and forecasts.

To change the map : click on the green buttons with a black cross to zoom in, on the green button with a dash to zoom out, or on the green arrows for adjacent maps.


METAR-TAF: